| time (UTC) | temp C | wind direction | speed KPH | gust KPH | rain 1hr cm | rain 24hr cm | rain mn cm | humidity % | barometer mb |
| 20260507104605 | 8 | 266 | 0.0 | 3.2 | 0.00 | 1.12 | 0.58 | 71 | 1008.4 |
| 20260507104502 | 8 | 245 | 0.0 | 3.2 | 0.00 | 1.12 | 0.58 | 71 | 1008.3 |
| 20260507103040 | 8 | 242 | 0.0 | 1.6 | 0.03 | 1.12 | 0.58 | 72 | 1008.1 |
| 20260507101518 | 8 | 242 | 0.0 | 1.6 | 0.05 | 1.12 | 0.58 | 71 | 1008.4 |
| 20260507100045 | 8 | 235 | 0.0 | 1.6 | 0.13 | 1.12 | 0.58 | 71 | 1008.3 |
| 20260507094512 | 8 | 255 | 0.0 | 1.6 | 0.18 | 1.12 | 0.58 | 71 | 1008.1 |
| 20260507093050 | 8 | 257 | 0.0 | 4.8 | 0.25 | 1.09 | 0.56 | 71 | 1007.9 |
| 20260507091538 | 8 | 251 | 0.0 | 3.2 | 0.33 | 1.07 | 0.53 | 71 | 1008.0 |
| 20260507090043 | 8 | 247 | 1.6 | 8.0 | 0.30 | 0.99 | 0.46 | 71 | 1007.9 |
| 20260507084514 | 8 | 258 | 0.0 | 3.2 | 0.30 | 0.94 | 0.41 | 71 | 1008.0 |
| 20260507083050 | 8 | 242 | 0.0 | 3.2 | 0.20 | 0.84 | 0.30 | 71 | 1008.1 |
| 20260507081526 | 8 | 261 | 0.0 | 1.6 | 0.15 | 0.71 | 0.20 | 70 | 1008.3 |
| 20260507080040 | 9 | 249 | 0.0 | 1.6 | 0.10 | 0.69 | 0.15 | 69 | 1008.0 |
| 20260507074516 | 9 | 219 | 0.0 | 4.8 | 0.05 | 0.64 | 0.10 | 69 | 1008.4 |
| 20260507073054 | 10 | 219 | 0.0 | 8.0 | 0.05 | 0.64 | 0.10 | 67 | 1008.0 |
| 20260507071535 | 10 | 257 | 0.0 | 3.2 | 0.00 | 0.58 | 0.05 | 68 | 1008.0 |
| 20260507070045 | 10 | 254 | 0.0 | 1.6 | 0.00 | 0.58 | 0.05 | 68 | 1007.0 |
| 20260507064544 | 10 | 216 | 0.0 | 1.6 | 0.00 | 0.58 | 0.05 | 67 | 1007.0 |
| 20260507063004 | 10 | 273 | 0.0 | 1.6 | 0.00 | 0.58 | 0.05 | 66 | 1007.1 |
| 20260507061542 | 11 | 297 | 0.0 | 4.8 | 0.00 | 0.58 | 0.05 | 65 | 1007.4 |
| 20260507060109 | 11 | 314 | 0.0 | 1.6 | 0.00 | 0.58 | 0.05 | 69 | 1007.3 |
| 20260507054532 | 11 | 102 | 0.0 | 4.8 | 0.00 | 0.58 | 0.05 | 69 | 1007.4 |
| 20260507053008 | 11 | 212 | 1.6 | 8.0 | 0.00 | 0.58 | 0.05 | 69 | 1007.6 |
| 20260507051601 | 12 | 265 | 0.0 | 4.8 | 0.00 | 0.58 | 0.05 | 70 | 1007.8 |
| 20260507050054 | 12 | 245 | 0.0 | 8.0 | 0.05 | 0.58 | 0.05 | 69 | 1007.5 |
| 20260507044534 | 12 | 248 | 0.0 | 11.3 | 0.10 | 0.58 | 0.05 | 70 | 1007.3 |
| 20260507043010 | 13 | 238 | 1.6 | 12.9 | 0.20 | 0.58 | 0.05 | 70 | 1007.2 |
| 20260507041550 | 13 | 232 | 0.0 | 3.2 | 0.20 | 0.58 | 0.05 | 70 | 1007.2 |
| 20260507040058 | 13 | 271 | 0.0 | 8.0 | 0.15 | 0.53 | 0.53 | 70 | 1007.1 |
| 20260507034536 | 13 | 268 | 0.0 | 4.8 | 0.08 | 0.46 | 0.46 | 70 | 1007.3 |
| 20260507033012 | 13 | 267 | 1.6 | 8.0 | 0.00 | 0.38 | 0.38 | 70 | 1007.4 |
| 20260507031550 | 14 | 244 | 0.0 | 6.4 | 0.00 | 0.38 | 0.38 | 71 | 1007.3 |
| 20260507030058 | 13 | 276 | 0.0 | 6.4 | 0.00 | 0.38 | 0.38 | 71 | 1007.0 |
| 20260507024538 | 13 | 248 | 3.2 | 11.3 | 0.00 | 0.38 | 0.38 | 71 | 1006.9 |
| 20260507023013 | 13 | 233 | 0.0 | 8.0 | 0.00 | 0.38 | 0.38 | 71 | 1006.8 |
| 20260507021552 | 13 | 246 | 0.0 | 6.4 | 0.00 | 0.38 | 0.38 | 71 | 1006.5 |
| 20260507020119 | 13 | 248 | 0.0 | 4.8 | 0.00 | 0.38 | 0.38 | 71 | 1006.8 |
| 20260507020002 | 13 | 248 | 0.0 | 4.8 | 0.00 | 0.38 | 0.38 | 71 | 1006.8 |
| 20260507014545 | 13 | 94 | 0.0 | 8.0 | 0.00 | 0.38 | 0.38 | 71 | 1006.8 |
| 20260507013016 | 13 | 233 | 0.0 | 6.4 | 0.00 | 0.38 | 0.38 | 71 | 1006.7 |
| 20260507011554 | 13 | 162 | 0.0 | 3.2 | 0.00 | 0.38 | 0.38 | 71 | 1006.8 |
| 20260507010111 | 13 | 219 | 0.0 | 4.8 | 0.00 | 0.38 | 0.38 | 71 | 1007.0 |
| 20260507010004 | 13 | 242 | 0.0 | 4.8 | 0.00 | 0.38 | 0.38 | 71 | 1007.0 |
| 20260507004539 | 13 | 267 | 0.0 | 3.2 | 0.00 | 0.38 | 0.38 | 71 | 1007.0 |
| 20260507003023 | 13 | 223 | 0.0 | 4.8 | 0.00 | 0.38 | 0.38 | 71 | 1007.1 |
| 20260507001557 | 13 | 246 | 0.0 | 3.2 | 0.03 | 0.38 | 0.38 | 70 | 1007.1 |
| 20260507000004 | 13 | 221 | 0.0 | 3.2 | 0.05 | 0.38 | 0.38 | 70 | 1006.9 |
| 20260506234541 | 13 | 169 | 0.0 | 8.0 | 0.08 | 0.38 | 0.38 | 70 | 1006.7 |
| 20260506233017 | 13 | 207 | 0.0 | 3.2 | 0.08 | 0.38 | 0.38 | 69 | 1006.6 |
| 20260506231608 | 13 | 257 | 0.0 | 1.6 | 0.05 | 0.36 | 0.36 | 69 | 1006.7 |
| 20260506230017 | 13 | 231 | 0.0 | 6.4 | 0.03 | 0.33 | 0.33 | 68 | 1006.5 |
| 20260506224543 | 13 | 199 | 0.0 | 3.2 | 0.00 | 0.30 | 0.30 | 67 | 1006.7 |
| 20260506223019 | 14 | 232 | 0.0 | 6.4 | 0.03 | 0.30 | 0.30 | 67 | 1006.7 |
| 20260506221621 | 14 | 219 | 0.0 | 3.2 | 0.03 | 0.30 | 0.30 | 67 | 1006.7 |
| 20260506220007 | 14 | 219 | 0.0 | 4.8 | 0.05 | 0.30 | 0.30 | 67 | 1006.8 |
| 20260506214548 | 14 | 253 | 0.0 | 4.8 | 0.08 | 0.30 | 0.30 | 67 | 1006.8 |
| 20260506213021 | 15 | 211 | 0.0 | 8.0 | 0.08 | 0.28 | 0.28 | 67 | 1006.9 |
| 20260506211600 | 14 | 223 | 1.6 | 4.8 | 0.10 | 0.28 | 0.28 | 65 | 1007.2 |
| 20260506211502 | 14 | 212 | 0.0 | 4.8 | 0.10 | 0.28 | 0.28 | 65 | 1007.1 |
| 20260506210008 | 14 | 214 | 0.0 | 6.4 | 0.08 | 0.25 | 0.25 | 65 | 1007.3 |
| 20260506204545 | 15 | 143 | 1.6 | 9.7 | 0.08 | 0.23 | 0.23 | 65 | 1007.2 |
| 20260506203021 | 15 | 203 | 0.0 | 4.8 | 0.05 | 0.20 | 0.20 | 65 | 1007.3 |
| 20260506201557 | 15 | 243 | 1.6 | 20.9 | 0.05 | 0.18 | 0.18 | 67 | 1007.5 |
| 20260506200007 | 14 | 236 | 0.0 | 8.0 | 0.08 | 0.18 | 0.18 | 68 | 1007.6 |
| 20260506194545 | 15 | 252 | 1.6 | 8.0 | 0.10 | 0.15 | 0.15 | 67 | 1007.6 |
| 20260506193027 | 15 | 193 | 0.0 | 3.2 | 0.13 | 0.15 | 0.15 | 68 | 1007.9 |
| 20260506191619 | 15 | 214 | 1.6 | 4.8 | 0.13 | 0.13 | 0.13 | 72 | 1007.8 |
| 20260506191501 | 15 | 207 | 1.6 | 4.8 | 0.13 | 0.13 | 0.13 | 72 | 1007.8 |
| 20260506190015 | 15 | 207 | 1.6 | 4.8 | 0.10 | 0.10 | 0.10 | 74 | 1008.0 |
| 20260506184559 | 16 | 255 | 1.6 | 6.4 | 0.05 | 0.05 | 0.05 | 78 | 1008.1 |
| 20260506183023 | 16 | 224 | 0.0 | 8.0 | 0.03 | 0.03 | 0.03 | 78 | 1008.2 |
| 20260506181503 | 17 | 210 | 0.0 | 4.8 | 0.00 | 0.00 | 0.00 | 75 | 1008.3 |
| 20260506180019 | 18 | 237 | 0.0 | 4.8 | 0.00 | 0.00 | 0.00 | 71 | 1008.4 |
| 20260506174551 | 19 | 216 | 1.6 | 9.7 | 0.00 | 0.00 | 0.00 | 68 | 1008.4 |
| 20260506173027 | 20 | 212 | 1.6 | 9.7 | 0.00 | 0.00 | 0.00 | 64 | 1008.4 |
| 20260506171510 | 21 | 209 | 4.8 | 9.7 | 0.00 | 0.00 | 0.00 | 61 | 1008.6 |
| 20260506170013 | 21 | 193 | 3.2 | 8.0 | 0.00 | 0.00 | 0.00 | 61 | 1008.4 |
| 20260506164551 | 21 | 223 | 3.2 | 9.7 | 0.00 | 0.00 | 0.00 | 61 | 1008.4 |
| 20260506163035 | 21 | 181 | 0.0 | 8.0 | 0.00 | 0.00 | 0.00 | 62 | 1008.8 |
| 20260506161507 | 21 | 224 | 3.2 | 11.3 | 0.00 | 0.00 | 0.00 | 61 | 1009.0 |
| 20260506160021 | 21 | 211 | 3.2 | 8.0 | 0.00 | 0.00 | 0.00 | 61 | 1009.1 |
| 20260506154553 | 22 | 257 | 3.2 | 8.0 | 0.00 | 0.00 | 0.00 | 59 | 1009.1 |
| 20260506153032 | 21 | 174 | 1.6 | 9.7 | 0.00 | 0.00 | 0.00 | 61 | 1009.4 |
| 20260506151509 | 21 | 204 | 1.6 | 8.0 | 0.00 | 0.00 | 0.00 | 61 | 1009.6 |
| 20260506150017 | 21 | 245 | 0.0 | 6.4 | 0.00 | 0.00 | 0.00 | 64 | 1009.9 |
| 20260506144602 | 20 | 212 | 1.6 | 6.4 | 0.00 | 0.00 | 0.00 | 65 | 1009.8 |
| 20260506143031 | 20 | 261 | 0.0 | 12.9 | 0.00 | 0.00 | 0.00 | 65 | 1009.9 |
| 20260506141510 | 20 | 217 | 1.6 | 6.4 | 0.00 | 0.00 | 0.00 | 65 | 1009.8 |
| 20260506140026 | 20 | 208 | 1.6 | 8.0 | 0.00 | 0.00 | 0.00 | 65 | 1009.7 |
| 20260506134558 | 19 | 207 | 1.6 | 12.9 | 0.00 | 0.00 | 0.00 | 67 | 1009.6 |
| 20260506134502 | 19 | 220 | 1.6 | 12.9 | 0.00 | 0.00 | 0.00 | 67 | 1009.8 |
| 20260506133031 | 18 | 207 | 1.6 | 6.4 | 0.00 | 0.00 | 0.00 | 69 | 1009.7 |
| 20260506131507 | 17 | 217 | 0.0 | 6.4 | 0.00 | 0.00 | 0.00 | 70 | 1010.3 |
| 20260506130013 | 17 | 229 | 0.0 | 4.8 | 0.00 | 0.00 | 0.00 | 71 | 1010.5 |
| 20260506124551 | 16 | 212 | 0.0 | 8.0 | 0.00 | 0.00 | 0.00 | 72 | 1010.4 |
| 20260506123027 | 16 | 216 | 1.6 | 6.4 | 0.00 | 0.00 | 0.00 | 72 | 1010.4 |
| 20260506121506 | 16 | 222 | 1.6 | 6.4 | 0.00 | 0.00 | 0.00 | 72 | 1010.5 |
| 20260506120018 | 16 | 236 | 0.0 | 8.0 | 0.00 | 0.00 | 0.00 | 73 | 1010.5 |
| 20260506114555 | 15 | 240 | 0.0 | 6.4 | 0.00 | 0.00 | 0.00 | 75 | 1010.6 |
| 20260506113030 | 15 | 220 | 0.0 | 8.0 | 0.00 | 0.00 | 0.00 | 76 | 1010.7 |
| 20260506111508 | 15 | 255 | 0.0 | 6.4 | 0.00 | 0.00 | 0.00 | 75 | 1010.8 |
| 20260506110021 | 14 | 222 | 0.0 | 4.8 | 0.00 | 0.00 | 0.00 | 76 | 1010.7 |